Time;durP1;ratioP1;P1;durP2;ratioP2;P2;SDS_P1;SDS_P2;PMS_P1;PMS_P2;Temp;Humidity;BMP_temperature;BMP_pressure;BME280_temperature;BME280_humidity;BME280_pressure;Samples;Min_cycle;Max_cycle;Signal;HPM_P1;HPM_P2
2024/01/02 00:02:06;;;;;;;13.07;4.90;;;0.20;99.90;2.60;96531.00;;;;5033631;28;20457;-69
2024/01/02 00:04:54;;;;;;;120.93;53.77;;;0.30;99.90;2.60;96525.00;;;;5029975;28;20432;-69
2024/01/02 00:07:43;;;;;;;64.60;26.33;;;0.40;99.90;2.40;96516.00;;;;5027667;28;20804;-70
2024/01/02 00:10:33;;;;;;;18.63;6.10;;;0.30;99.90;2.60;96507.00;;;;5029387;28;20436;-69
2024/01/02 00:13:22;;;;;;;10.37;3.53;;;0.40;99.90;2.60;96506.00;;;;5030872;28;20429;-68
2024/01/02 00:16:11;;;;;;;15.37;11.40;;;0.40;99.90;2.50;96516.00;;;;5025080;28;20436;-69
2024/01/02 00:19:00;;;;;;;105.57;40.80;;;0.40;99.90;2.30;96507.00;;;;5027297;28;20417;-69
2024/01/02 00:21:49;;;;;;;13.53;9.17;;;0.40;99.90;2.40;96503.00;;;;5034031;28;20444;-69
2024/01/02 00:24:38;;;;;;;62.40;21.50;;;0.30;99.90;2.50;96509.00;;;;5023184;28;20428;-69
2024/01/02 00:27:28;;;;;;;13.40;4.73;;;0.30;99.90;2.50;96505.00;;;;5028108;28;20483;-69
2024/01/02 00:30:17;;;;;;;10.20;3.47;;;0.30;99.90;2.40;96497.00;;;;5026053;28;20467;-70
2024/01/02 00:33:06;;;;;;;8.70;3.10;;;0.30;99.90;1.80;96506.00;;;;5026428;28;20459;-70
2024/01/02 00:35:55;;;;;;;12.43;4.10;;;0.20;99.90;1.70;96502.00;;;;5026478;28;20449;-71
2024/01/02 00:38:44;;;;;;;13.80;4.37;;;;;1.50;96506.00;;;;5026236;28;20817;-71
2024/01/02 00:41:33;;;;;;;13.43;4.53;;;0.00;99.90;1.40;96501.00;;;;5024866;28;20451;-69
2024/01/02 00:44:24;;;;;;;10.93;3.57;;;-0.10;99.90;1.60;96509.00;;;;5029697;28;20451;-70
2024/01/02 00:47:13;;;;;;;9.80;3.30;;;;;1.50;96499.00;;;;5024034;28;20525;-70
2024/01/02 00:50:03;;;;;;;7.80;2.70;;;-0.20;99.90;1.50;96496.00;;;;5026254;28;20937;-70
2024/01/02 00:52:52;;;;;;;20.33;6.57;;;-0.30;99.90;1.50;96496.00;;;;5028464;28;20444;-71
2024/01/02 00:55:41;;;;;;;13.40;4.40;;;-0.30;99.90;1.60;96497.00;;;;5025789;28;20428;-69
2024/01/02 00:58:29;;;;;;;11.57;3.93;;;-0.30;99.90;1.90;96511.00;;;;5029479;28;20430;-70
2024/01/02 01:01:20;;;;;;;12.57;4.20;;;-0.20;99.90;1.90;96505.00;;;;5026987;28;20991;-70
2024/01/02 01:04:09;;;;;;;14.63;4.97;;;-0.20;99.90;2.00;96514.00;;;;5029167;28;20442;-72
2024/01/02 01:06:58;;;;;;;9.30;3.23;;;-0.20;99.90;2.00;96520.00;;;;5027899;28;20997;-70
2024/01/02 01:09:47;;;;;;;8.60;2.97;;;-0.20;99.90;1.50;96518.00;;;;5030467;28;20456;-69
2024/01/02 01:12:37;;;;;;;10.57;3.47;;;-0.30;99.90;1.70;96521.00;;;;5028626;28;20471;-70
2024/01/02 01:15:26;;;;;;;10.77;3.70;;;-0.30;99.90;1.90;96517.00;;;;5026907;28;20440;-70
2024/01/02 01:18:16;;;;;;;6.67;2.27;;;-0.20;99.90;1.90;96526.00;;;;5027160;28;20825;-71
2024/01/02 01:21:05;;;;;;;9.50;3.20;;;-0.20;99.90;1.70;96519.00;;;;5030012;28;20489;-72
2024/01/02 01:23:54;;;;;;;20.23;6.50;;;;;0.80;96525.00;;;;5021865;28;20946;-72
2024/01/02 01:26:43;;;;;;;13.73;4.63;;;-0.40;99.90;0.50;96511.00;;;;5025693;28;21088;-70
2024/01/02 01:29:32;;;;;;;16.20;5.20;;;-0.50;99.90;1.00;96505.00;;;;5024815;28;20446;-69
2024/01/02 01:32:21;;;;;;;12.73;4.13;;;;;0.70;96506.00;;;;5026309;28;20459;-71
2024/01/02 01:35:13;;;;;;;11.00;3.60;;;-0.70;99.90;0.80;96503.00;;;;5026806;28;20466;-69
2024/01/02 01:38:02;;;;;;;6.47;2.30;;;-0.70;99.90;1.40;96506.00;;;;5026967;28;20424;-70
2024/01/02 01:40:51;;;;;;;16.93;5.40;;;-0.70;99.90;1.50;96510.00;;;;5036015;28;20435;-71
2024/01/02 01:43:40;;;;;;;18.17;5.73;;;-0.70;99.90;1.60;96498.00;;;;5030944;28;20431;-70
2024/01/02 01:46:36;;;;;;;9.67;3.30;;;-0.50;99.90;1.80;96498.00;;;;5028927;28;20440;-72
2024/01/02 01:49:25;;;;;;;6.83;2.37;;;-0.50;99.90;1.30;96494.00;;;;5033170;28;20443;-71
2024/01/02 01:52:16;;;;;;;13.87;4.57;;;-0.60;99.90;1.30;96499.00;;;;5034353;28;20479;-71
2024/01/02 01:55:07;;;;;;;10.13;3.50;;;-0.60;99.90;1.40;96491.00;;;;5030234;28;20432;-71
2024/01/02 01:57:56;;;;;;;10.60;3.60;;;-0.60;99.90;1.50;96499.00;;;;5030014;28;20428;-71
2024/01/02 02:00:45;;;;;;;13.17;4.47;;;-0.70;99.90;1.10;96491.00;;;;5029268;28;20432;-71
2024/01/02 02:03:34;;;;;;;18.03;5.67;;;-0.70;99.90;1.10;96491.00;;;;5025828;28;20443;-71
2024/01/02 02:06:24;;;;;;;10.60;3.53;;;;;0.80;96493.00;;;;5028694;28;20435;-69
2024/01/02 02:09:14;;;;;;;12.43;4.07;;;-0.80;99.90;0.50;96480.00;;;;5031084;28;20984;-72
2024/01/02 02:12:03;;;;;;;9.67;3.20;;;;;0.70;96474.00;;;;5025289;28;20464;-71
2024/01/02 02:14:53;;;;;;;8.13;2.73;;;-0.90;99.90;1.10;96476.00;;;;5025029;28;20431;-72
2024/01/02 02:17:47;;;;;;;21.40;6.80;;;-0.90;99.90;1.10;96467.00;;;;5027538;28;20439;-71
2024/01/02 02:20:36;;;;;;;17.20;5.57;;;-0.90;99.90;0.70;96469.00;;;;5029415;28;20498;-71
2024/01/02 02:23:27;;;;;;;10.83;3.57;;;-0.90;99.90;0.80;96473.00;;;;5031509;28;20440;-71
2024/01/02 02:26:15;;;;;;;11.67;3.83;;;-0.90;99.90;1.20;96483.00;;;;5021566;28;20432;-70
2024/01/02 02:29:04;;;;;;;6.47;2.43;;;-0.90;99.90;1.10;96487.00;;;;5030128;28;20989;-73
2024/01/02 02:31:53;;;;;;;9.07;3.13;;;-0.90;99.90;1.10;96478.00;;;;5029836;28;20447;-70
2024/01/02 02:34:42;;;;;;;11.87;3.90;;;-0.90;99.90;1.20;96485.00;;;;5027701;28;20420;-71
2024/01/02 02:37:31;;;;;;;13.90;4.43;;;-0.90;99.90;1.10;96476.00;;;;5034193;28;20427;-70
2024/01/02 02:40:21;;;;;;;10.97;3.67;;;-0.90;99.90;1.10;96473.00;;;;5027019;28;20420;-72
2024/01/02 02:43:10;;;;;;;8.57;2.90;;;-0.90;99.90;1.10;96470.00;;;;5030303;28;20671;-71
2024/01/02 02:45:59;;;;;;;10.93;3.70;;;;;1.00;96462.00;;;;5028552;28;20432;-70
2024/01/02 02:48:48;;;;;;;8.63;2.97;;;-0.90;99.90;0.80;96445.00;;;;5027619;28;20496;-71
2024/01/02 02:51:37;;;;;;;12.83;4.20;;;;;0.90;96449.00;;;;5030139;28;20444;-70
2024/01/02 02:54:26;;;;;;;9.00;3.03;;;-1.00;99.90;0.80;96455.00;;;;5026885;28;20424;-72
2024/01/02 02:57:16;;;;;;;8.10;2.80;;;-1.00;99.90;0.80;96445.00;;;;5026272;28;20431;-71
2024/01/02 03:00:07;;;;;;;9.80;3.23;;;-1.00;99.90;0.50;96449.00;;;;5027651;28;20428;-71
2024/01/02 03:02:56;;;;;;;11.07;3.73;;;-1.10;99.90;0.50;96451.00;;;;5024769;28;21184;-70
2024/01/02 03:05:45;;;;;;;13.87;4.60;;;-1.10;99.90;0.70;96448.00;;;;5033868;28;20436;-71
2024/01/02 03:08:34;;;;;;;13.37;4.33;;;-1.10;99.90;0.50;96451.00;;;;5022181;28;20464;-70
2024/01/02 03:11:23;;;;;;;9.57;3.30;;;-1.10;99.90;0.30;96449.00;;;;5026227;28;20460;-71
2024/01/02 03:14:13;;;;;;;11.53;3.87;;;-1.20;99.90;0.30;96453.00;;;;5024755;28;20416;-71
2024/01/02 03:17:02;;;;;;;9.73;3.27;;;-1.30;99.90;0.80;96451.00;;;;5037410;28;20427;-70
2024/01/02 03:19:51;;;;;;;10.00;3.47;;;-1.30;99.90;1.10;96456.00;;;;5029992;28;20769;-70
2024/01/02 03:22:40;;;;;;;11.03;3.70;;;-1.20;99.90;1.20;96460.00;;;;5030697;28;20969;-70
2024/01/02 03:25:29;;;;;;;10.43;3.47;;;-1.00;99.90;0.60;96452.00;;;;5028244;28;20435;-72
2024/01/02 03:28:18;;;;;;;11.87;3.93;;;-1.10;99.90;0.50;96447.00;;;;5029173;28;20464;-70
2024/01/02 03:31:08;;;;;;;6.20;2.20;;;-1.30;99.90;0.40;96456.00;;;;5029938;28;20424;-71
2024/01/02 03:33:57;;;;;;;14.73;4.80;;;-1.20;99.90;0.20;96446.00;;;;5028195;28;20427;-72
2024/01/02 03:36:46;;;;;;;15.17;4.87;;;-1.30;99.90;0.60;96457.00;;;;5033576;28;20421;-70
2024/01/02 03:39:35;;;;;;;10.30;3.43;;;-1.30;99.90;0.80;96452.00;;;;5027071;28;21007;-72
2024/01/02 03:42:24;;;;;;;10.40;3.47;;;-1.20;99.90;0.50;96447.00;;;;5027333;28;20451;-70
2024/01/02 03:45:13;;;;;;;9.33;3.17;;;-1.20;99.90;-0.10;96452.00;;;;5027705;28;20440;-70
2024/01/02 03:48:03;;;;;;;10.17;3.40;;;-1.30;99.90;0.00;96450.00;;;;5027787;28;20466;-70
2024/01/02 03:50:53;;;;;;;21.23;6.57;;;-1.30;99.90;0.30;96448.00;;;;5028637;28;20424;-70
2024/01/02 03:53:41;;;;;;;21.70;6.77;;;-1.30;99.90;0.30;96453.00;;;;5028259;28;20439;-70
2024/01/02 03:56:31;;;;;;;8.13;2.90;;;;;0.00;96436.00;;;;5027843;28;20424;-71
2024/01/02 03:59:20;;;;;;;6.00;2.27;;;-1.40;99.90;0.50;96429.00;;;;5027188;28;20429;-70
2024/01/02 04:02:09;;;;;;;14.77;4.73;;;-1.40;99.90;0.90;96435.00;;;;5024750;28;20977;-70
2024/01/02 04:04:59;;;;;;;11.40;3.70;;;-1.30;99.90;0.30;96433.00;;;;5030813;28;20415;-70
2024/01/02 04:07:48;;;;;;;18.77;5.90;;;-1.30;99.90;-0.30;96410.00;;;;5028591;28;20428;-69
2024/01/02 04:10:39;;;;;;;17.47;5.40;;;-1.50;99.90;-0.50;96416.00;;;;5028969;28;20933;-70
2024/01/02 04:13:28;;;;;;;11.10;3.73;;;-1.60;99.90;0.20;96421.00;;;;5028755;28;20451;-71
2024/01/02 04:16:17;;;;;;;11.40;3.70;;;-1.50;99.90;0.10;96419.00;;;;5028350;28;20466;-70
2024/01/02 04:19:06;;;;;;;9.90;3.40;;;-1.60;99.90;0.10;96414.00;;;;5031058;28;20433;-71
2024/01/02 04:21:56;;;;;;;8.63;2.80;;;-1.60;99.90;-0.40;96412.00;;;;5028238;28;20476;-72
2024/01/02 04:24:45;;;;;;;17.97;5.70;;;-1.60;99.90;0.20;96421.00;;;;5024615;28;20803;-71
2024/01/02 04:27:34;;;;;;;17.73;5.57;;;-1.50;99.90;0.40;96426.00;;;;5025875;28;20428;-72
2024/01/02 04:30:23;;;;;;;12.87;4.17;;;-1.50;99.90;0.20;96413.00;;;;5025428;28;20428;-70
2024/01/02 04:33:12;;;;;;;7.13;2.67;;;;;0.00;96402.00;;;;5031852;28;20475;-73
2024/01/02 04:36:01;;;;;;;9.90;3.40;;;-1.50;99.90;0.00;96394.00;;;;5028300;28;20428;-71
2024/01/02 04:38:51;;;;;;;6.87;2.43;;;-1.50;99.90;0.10;96403.00;;;;5028616;28;20605;-71
2024/01/02 04:41:40;;;;;;;14.77;4.73;;;;;-0.20;96393.00;;;;5025769;28;21171;-73
2024/01/02 04:44:29;;;;;;;7.90;2.83;;;;;0.30;96387.00;;;;5027832;28;20459;-70
2024/01/02 04:47:18;;;;;;;11.07;3.67;;;-0.60;99.90;0.60;96389.00;;;;5024549;28;20428;-73
2024/01/02 04:50:08;;;;;;;8.93;3.13;;;-1.40;99.90;0.70;96387.00;;;;5024086;28;21000;-70
2024/01/02 04:52:57;;;;;;;11.77;3.87;;;-1.40;99.90;0.40;96374.00;;;;5022653;28;20453;-70
2024/01/02 04:55:47;;;;;;;16.17;5.13;;;-1.40;99.90;0.20;96379.00;;;;5027118;28;20935;-70
2024/01/02 04:58:36;;;;;;;16.00;5.03;;;;;0.00;96382.00;;;;5028837;28;21139;-72
2024/01/02 05:01:25;;;;;;;10.73;3.63;;;-1.50;99.90;-0.20;96370.00;;;;5025737;28;20514;-72
2024/01/02 05:04:14;;;;;;;7.77;2.83;;;-1.50;99.90;0.10;96374.00;;;;5029995;28;20424;-70
2024/01/02 05:07:03;;;;;;;11.50;3.83;;;-1.50;99.90;0.30;96373.00;;;;5027576;28;20428;-71
2024/01/02 05:09:52;;;;;;;10.03;3.40;;;-1.50;99.90;0.40;96372.00;;;;5026752;28;20476;-69
2024/01/02 05:12:42;;;;;;;14.43;4.70;;;-1.40;99.90;0.60;96376.00;;;;5028781;28;20460;-72
2024/01/02 05:15:31;;;;;;;11.13;3.70;;;-1.30;99.90;1.10;96372.00;;;;5026872;28;20435;-70
2024/01/02 05:18:20;;;;;;;11.80;3.90;;;-1.20;99.90;1.40;96382.00;;;;5027789;28;20432;-70
2024/01/02 05:21:09;;;;;;;11.83;4.00;;;-0.90;99.90;1.10;96361.00;;;;5030921;28;20432;-71
2024/01/02 05:23:58;;;;;;;17.87;6.03;;;-1.00;99.90;0.60;96356.00;;;;5028165;28;20430;-70
2024/01/02 05:26:47;;;;;;;14.07;4.67;;;;;0.30;96355.00;;;;5033587;28;20432;-72
2024/01/02 05:29:37;;;;;;;18.90;6.20;;;-1.10;99.90;0.20;96356.00;;;;5031626;28;20463;-71
2024/01/02 05:32:26;;;;;;;12.00;4.13;;;-1.20;99.90;-0.10;96351.00;;;;5030140;28;20458;-71
2024/01/02 05:35:15;;;;;;;10.20;3.50;;;-1.30;99.90;-0.20;96342.00;;;;5030030;28;20447;-72
2024/01/02 05:38:04;;;;;;;11.50;4.13;;;-1.40;99.90;0.40;96342.00;;;;5026619;28;21310;-70
2024/01/02 05:40:53;;;;;;;22.67;7.33;;;-1.30;99.90;0.30;96348.00;;;;5029977;28;20420;-70
2024/01/02 05:43:42;;;;;;;26.83;8.50;;;-1.30;99.90;0.60;96346.00;;;;5028666;28;20442;-70
2024/01/02 05:46:32;;;;;;;10.47;3.77;;;-1.30;99.90;0.50;96346.00;;;;5026427;28;20428;-71
2024/01/02 05:49:21;;;;;;;13.10;4.43;;;;;0.10;96344.00;;;;5030232;28;20852;-71
2024/01/02 05:52:10;;;;;;;15.60;5.40;;;-1.30;99.90;0.60;96358.00;;;;5034554;28;20946;-72
2024/01/02 05:54:59;;;;;;;9.43;3.47;;;-1.20;99.90;1.10;96352.00;;;;5035997;28;20436;-71
2024/01/02 05:57:48;;;;;;;29.43;9.70;;;-1.10;99.90;1.20;96355.00;;;;5032431;28;20417;-70
2024/01/02 06:00:37;;;;;;;31.00;10.50;;;-1.10;99.90;1.40;96348.00;;;;5028072;28;20471;-72
2024/01/02 06:03:27;;;;;;;13.50;5.47;;;-0.90;99.90;1.50;96339.00;;;;5033594;28;20428;-71
2024/01/02 06:06:16;;;;;;;13.63;5.77;;;-0.80;99.90;1.40;96351.00;;;;5026422;28;20442;-70
2024/01/02 06:09:05;;;;;;;9.17;5.67;;;-0.80;99.90;0.80;96339.00;;;;5030900;28;20496;-70
2024/01/02 06:11:54;;;;;;;17.67;8.47;;;-1.00;99.90;0.80;96332.00;;;;5021218;28;20465;-71
2024/01/02 06:14:42;;;;;;;16.97;9.83;;;-0.90;99.90;0.70;96342.00;;;;5032586;28;20428;-70
2024/01/02 06:17:31;;;;;;;45.57;31.33;;;-1.00;99.90;0.60;96339.00;;;;5032661;28;20432;-71
2024/01/02 06:20:22;;;;;;;41.23;29.23;;;-1.00;99.90;0.80;96344.00;;;;5025441;28;20508;-70
2024/01/02 06:23:11;;;;;;;46.13;32.40;;;-1.00;99.90;0.80;96344.00;;;;5020538;28;20564;-72
2024/01/02 06:25:59;;;;;;;21.20;8.37;;;-1.00;99.90;0.70;96345.00;;;;5030359;28;20440;-70
2024/01/02 06:28:48;;;;;;;25.80;9.33;;;-1.00;99.90;0.80;96325.00;;;;5017600;28;20436;-71
2024/01/02 06:31:37;;;;;;;20.80;7.80;;;-1.00;99.90;0.70;96324.00;;;;5026201;28;20464;-69
2024/01/02 06:34:27;;;;;;;16.40;6.10;;;-1.00;99.90;0.90;96326.00;;;;5030655;28;20451;-70
2024/01/02 06:37:18;;;;;;;23.33;8.70;;;-1.00;99.90;0.20;96328.00;;;;5028263;28;21898;-72
2024/01/02 06:40:08;;;;;;;16.00;6.87;;;-1.00;99.90;0.70;96334.00;;;;5032907;28;20428;-70
2024/01/02 06:42:57;;;;;;;16.23;7.47;;;-1.00;99.90;0.90;96331.00;;;;5024268;28;20448;-70
2024/01/02 06:45:46;;;;;;;13.50;7.43;;;-1.00;99.90;1.00;96335.00;;;;5029138;28;20439;-72
2024/01/02 06:48:36;;;;;;;31.00;13.93;;;-0.90;99.90;0.80;96333.00;;;;5029731;28;20438;-70
2024/01/02 06:51:26;;;;;;;37.13;26.33;;;-0.90;99.90;1.20;96323.00;;;;5028983;28;20487;-70
2024/01/02 06:54:17;;;;;;;41.13;29.73;;;-0.70;99.90;1.60;96330.00;;;;5025772;28;20440;-70
2024/01/02 06:57:07;;;;;;;56.00;34.77;;;-0.70;99.90;1.80;96340.00;;;;5025650;28;20440;-70
2024/01/02 06:59:56;;;;;;;46.57;34.10;;;-0.60;99.90;1.70;96326.00;;;;5031227;28;20427;-71
2024/01/02 07:02:45;;;;;;;88.00;51.57;;;-0.50;99.90;1.40;96313.00;;;;5026670;28;20491;-71
2024/01/02 07:05:34;;;;;;;48.70;31.77;;;-0.50;99.90;1.20;96307.00;;;;5027586;28;20649;-71
2024/01/02 07:08:23;;;;;;;101.57;54.20;;;-0.60;99.90;1.30;96303.00;;;;5028642;28;20505;-70
2024/01/02 07:11:13;;;;;;;65.10;42.17;;;-0.70;99.90;1.30;96297.00;;;;5029880;28;20471;-70
2024/01/02 07:14:02;;;;;;;14.67;5.20;;;-0.60;99.90;1.20;96288.00;;;;5030858;28;20444;-70
2024/01/02 07:16:51;;;;;;;24.90;8.13;;;-0.70;99.90;1.20;96295.00;;;;5027005;28;20428;-71
2024/01/02 07:19:39;;;;;;;15.27;5.27;;;-0.60;99.90;0.50;96285.00;;;;5027838;28;20921;-70
2024/01/02 07:22:29;;;;;;;12.20;4.17;;;;;0.30;96287.00;;;;5024376;28;20463;-71
2024/01/02 07:25:18;;;;;;;23.70;7.63;;;-0.90;99.90;0.80;96297.00;;;;5026911;28;20440;-74
2024/01/02 07:28:09;;;;;;;13.80;4.63;;;-0.90;99.90;0.70;96283.00;;;;5019235;28;20447;-72
2024/01/02 07:30:58;;;;;;;28.10;8.57;;;-0.90;99.90;1.00;96289.00;;;;5022812;28;20471;-70
2024/01/02 07:33:47;;;;;;;33.40;10.57;;;-0.80;99.90;1.00;96295.00;;;;5025252;28;20433;-70
2024/01/02 07:36:37;;;;;;;21.50;7.23;;;-0.70;99.90;1.30;96284.00;;;;5026827;28;20794;-70
2024/01/02 07:39:26;;;;;;;26.73;8.40;;;-0.70;99.90;1.40;96283.00;;;;5024681;28;20441;-72
2024/01/02 07:42:15;;;;;;;22.17;7.23;;;-0.60;99.90;1.30;96274.00;;;;5023268;28;20460;-70
2024/01/02 07:45:07;;;;;;;11.57;3.93;;;-0.50;99.90;1.00;96266.00;;;;5018401;28;20425;-71
2024/01/02 07:47:56;;;;;;;13.80;4.73;;;-0.50;99.90;1.40;96245.00;;;;5022395;28;20456;-70
2024/01/02 07:50:45;;;;;;;26.70;8.57;;;-0.40;99.90;1.60;96257.00;;;;5028921;28;20464;-71
2024/01/02 07:53:34;;;;;;;15.60;5.30;;;-0.30;99.90;1.90;96253.00;;;;5026930;28;20447;-70
2024/01/02 07:56:26;;;;;;;12.10;4.53;;;-0.20;99.90;1.60;96245.00;;;;5028215;28;20449;-71
2024/01/02 07:59:19;;;;;;;14.87;5.07;;;-0.10;99.90;1.20;96240.00;;;;5022710;28;20453;-69
2024/01/02 08:02:10;;;;;;;14.07;4.90;;;-0.20;99.90;1.40;96236.00;;;;5027659;28;20991;-71
2024/01/02 08:04:58;;;;;;;11.60;4.27;;;-0.10;99.90;1.50;96233.00;;;;5033286;28;20439;-69
2024/01/02 08:07:47;;;;;;;33.23;10.47;;;-0.10;99.90;1.50;96232.00;;;;5021260;28;20440;-71
2024/01/02 08:10:37;;;;;;;16.20;5.70;;;-0.10;99.90;1.60;96232.00;;;;5018769;28;20472;-71
2024/01/02 08:13:26;;;;;;;11.37;3.90;;;1.30;99.90;1.60;96214.00;;;;5020715;28;20452;-70
2024/01/02 08:16:15;;;;;;;20.10;6.57;;;0.00;99.90;1.60;96217.00;;;;5023786;28;20468;-72
2024/01/02 08:19:07;;;;;;;15.00;4.90;;;0.00;99.90;2.10;96216.00;;;;5020933;28;20425;-71
2024/01/02 08:21:56;;;;;;;13.87;4.80;;;0.10;99.90;2.20;96212.00;;;;5022706;28;20464;-71
2024/01/02 08:24:45;;;;;;;22.17;7.23;;;0.10;99.90;2.30;96200.00;;;;5020587;28;20435;-70
2024/01/02 08:27:34;;;;;;;15.50;5.13;;;0.20;99.90;2.00;96210.00;;;;5022583;28;20435;-70
2024/01/02 08:30:23;;;;;;;12.63;4.60;;;0.20;99.90;1.60;96228.00;;;;5023434;28;20471;-71
2024/01/02 08:33:12;;;;;;;24.83;7.93;;;0.20;99.90;1.90;96202.00;;;;5022392;28;20460;-72
2024/01/02 08:36:02;;;;;;;14.70;4.97;;;0.30;99.90;2.40;96211.00;;;;5022532;28;20433;-73
2024/01/02 08:38:51;;;;;;;24.97;8.07;;;0.30;99.90;2.60;96208.00;;;;5023787;28;20445;-71
2024/01/02 08:41:40;;;;;;;22.80;7.27;;;0.40;99.90;2.20;96216.00;;;;5022585;28;20510;-72
2024/01/02 08:44:29;;;;;;;14.27;5.03;;;0.50;99.90;2.60;96220.00;;;;5025147;28;20456;-70
2024/01/02 08:47:18;;;;;;;12.80;4.53;;;0.50;99.90;2.50;96221.00;;;;5024700;28;20439;-71
2024/01/02 08:50:08;;;;;;;16.73;5.67;;;0.60;99.90;2.50;96213.00;;;;5025539;28;20964;-70
2024/01/02 08:52:59;;;;;;;18.33;5.97;;;0.60;99.90;2.90;96227.00;;;;5027683;28;20475;-70
2024/01/02 08:55:48;;;;;;;26.07;8.50;;;0.70;99.90;3.00;96219.00;;;;5025972;28;20432;-70
2024/01/02 08:58:37;;;;;;;20.53;6.87;;;0.80;99.90;2.80;96227.00;;;;5027288;28;20428;-70
2024/01/02 09:01:28;;;;;;;11.00;4.27;;;0.80;99.90;2.80;96219.00;;;;5027985;28;20455;-71
2024/01/02 09:04:17;;;;;;;16.80;5.87;;;;;2.70;96207.00;;;;5026899;28;20439;-70
2024/01/02 09:07:06;;;;;;;11.10;4.20;;;0.80;99.90;2.90;96207.00;;;;5026431;28;20437;-72
2024/01/02 09:09:57;;;;;;;14.93;5.27;;;0.80;99.90;2.60;96205.00;;;;5026159;28;20587;-70
2024/01/02 09:12:45;;;;;;;26.53;8.60;;;0.80;99.90;2.70;96189.00;;;;5024585;28;20467;-69
2024/01/02 09:15:35;;;;;;;11.50;4.27;;;;;2.60;96205.00;;;;5027433;28;20437;-71
2024/01/02 09:18:24;;;;;;;14.37;4.83;;;0.80;99.90;2.70;96192.00;;;;5027697;28;20436;-70
2024/01/02 09:21:13;;;;;;;12.70;4.37;;;0.80;99.90;2.60;96193.00;;;;5023579;28;20518;-70
2024/01/02 09:24:02;;;;;;;13.97;4.93;;;0.80;99.90;2.70;96183.00;;;;5027445;28;20462;-69
2024/01/02 09:26:57;;;;;;;26.40;8.53;;;0.80;99.90;2.90;96189.00;;;;5028000;28;20446;-70
2024/01/02 09:29:46;;;;;;;22.70;7.50;;;0.90;99.90;3.10;96182.00;;;;5027527;28;20452;-69
2024/01/02 09:32:35;;;;;;;12.53;4.73;;;1.00;99.90;3.30;96189.00;;;;5026693;28;20455;-69
2024/01/02 09:35:24;;;;;;;10.93;4.13;;;1.10;99.90;2.90;96172.00;;;;5019254;28;20444;-69
2024/01/02 09:38:15;;;;;;;12.20;4.27;;;;;3.10;96161.00;;;;5027367;28;20432;-71
2024/01/02 09:41:23;;;;;;;15.60;5.27;;;1.10;99.90;2.70;96152.00;;;;5023664;28;20494;-70
2024/01/02 09:44:45;;;;;;;17.67;6.20;;;1.20;99.90;3.50;96154.00;;;;5024747;28;20450;-69
2024/01/02 09:48:02;;;;;;;16.90;5.83;;;1.20;99.90;3.90;96168.00;;;;5024827;28;20443;-72
2024/01/02 09:51:04;;;;;;;37.97;11.93;;;1.50;99.90;2.90;96147.00;;;;5022610;28;20968;-71
2024/01/02 09:54:21;;;;;;;37.10;11.33;;;1.50;99.90;3.30;96141.00;;;;5025377;28;20450;-70
2024/01/02 09:57:24;;;;;;;16.10;5.77;;;1.40;99.90;3.50;96141.00;;;;5026413;28;20467;-69
2024/01/02 10:00:23;;;;;;;14.93;5.07;;;1.50;99.90;3.90;96147.00;;;;5026341;28;20440;-70
2024/01/02 10:03:37;;;;;;;12.40;4.70;;;1.50;99.90;3.30;96125.00;;;;5023667;28;20213;-70
2024/01/02 10:06:49;;;;;;;17.10;5.73;;;1.60;99.90;3.70;96121.00;;;;5026992;28;20790;-69
2024/01/02 10:09:54;;;;;;;21.47;7.57;;;1.60;99.90;3.30;96096.00;;;;5024628;28;20445;-71
2024/01/02 10:13:15;;;;;;;27.70;9.27;;;1.60;99.90;3.30;96097.00;;;;5046082;22;20258;-66
2024/01/02 10:16:29;;;;;;;15.07;5.73;;;1.60;99.90;4.20;96095.00;;;;5039652;28;20959;-65
2024/01/02 10:19:31;;;;;;;23.60;8.30;;;1.80;99.90;4.50;96079.00;;;;5040146;28;20434;-66
2024/01/02 10:22:31;;;;;;;31.07;10.53;;;2.00;99.90;4.50;96080.00;;;;5033565;28;20976;-65
2024/01/02 10:25:22;;;;;;;15.83;5.97;;;2.10;99.90;4.30;96074.00;;;;5040481;28;20210;-66
2024/01/02 10:28:18;;;;;;;15.27;5.80;;;2.10;99.90;4.40;96059.00;;;;5036631;28;20724;-64
2024/01/02 10:31:25;;;;;;;14.03;5.73;;;2.20;99.90;4.80;96073.00;;;;5038271;28;20440;-65
2024/01/02 10:34:27;;;;;;;13.07;5.37;;;2.40;99.90;4.80;96067.00;;;;5036064;28;20639;-65
2024/01/02 10:37:17;;;;;;;10.40;4.77;;;2.60;99.90;4.90;96034.00;;;;5037501;28;20212;-65
2024/01/02 10:40:13;;;;;;;11.40;5.63;;;2.90;99.90;5.20;96046.00;;;;5034744;28;20560;-66
2024/01/02 10:43:15;;;;;;;13.37;6.47;;;3.00;99.90;5.80;96033.00;;;;5034064;28;20224;-65
2024/01/02 10:46:14;;;;;;;18.00;7.90;;;;;5.70;96041.00;;;;5033881;28;20554;-65
2024/01/02 10:49:21;;;;;;;19.27;9.10;;;4.00;99.90;5.90;96048.00;;;;5038416;28;20224;-66
2024/01/02 10:52:19;;;;;;;20.13;9.23;;;4.30;99.90;6.20;96039.00;;;;5040845;28;20244;-66
2024/01/02 10:55:20;;;;;;;18.00;9.30;;;4.50;99.90;7.20;96028.00;;;;5035309;28;20216;-66
2024/01/02 10:58:17;;;;;;;14.87;10.30;;;4.90;99.90;7.90;96039.00;;;;5042545;28;20727;-66
2024/01/02 11:01:14;;;;;;;21.20;12.40;;;6.00;99.90;7.50;96052.00;;;;5036372;28;20213;-66
2024/01/02 11:04:15;;;;;;;12.03;10.20;;;6.70;99.90;8.10;96043.00;;;;5041383;28;20284;-66
2024/01/02 11:07:07;;;;;;;12.70;10.10;;;6.80;99.90;7.70;96059.00;;;;5037916;28;20208;-66
2024/01/02 11:10:06;;;;;;;14.23;10.73;;;6.60;99.90;7.90;96033.00;;;;5037690;28;20217;-65
2024/01/02 11:13:04;;;;;;;17.93;10.53;;;6.20;99.90;7.90;96013.00;;;;5034494;28;21103;-66
2024/01/02 11:16:10;;;;;;;23.30;13.40;;;6.00;99.90;9.00;95988.00;;;;5036787;28;21727;-66
2024/01/02 11:19:04;;;;;;;15.60;11.63;;;6.30;99.90;8.80;95976.00;;;;5037575;28;20204;-66
2024/01/02 11:22:02;;;;;;;39.60;23.30;;;7.10;99.90;9.60;95971.00;;;;5037436;28;20220;-65
2024/01/02 11:25:01;;;;;;;37.07;23.77;;;8.00;99.90;10.20;95984.00;;;;5038077;28;20674;-66
2024/01/02 11:27:53;;;;;;;36.07;27.30;;;8.80;99.90;10.40;95982.00;;;;5036358;28;20208;-66
2024/01/02 11:30:43;;;;;;;33.03;27.97;;;9.30;99.90;11.20;95984.00;;;;5038843;28;20200;-66
2024/01/02 11:33:45;;;;;;;32.47;30.17;;;9.80;99.90;11.40;95988.00;;;;5043822;28;20817;-65
2024/01/02 11:36:58;;;;;;;29.60;27.57;;;10.40;99.90;11.20;95997.00;;;;5040694;28;20204;-66
2024/01/02 11:40:01;;;;;;;38.67;34.87;;;10.70;99.90;10.80;96001.00;;;;5036550;28;20209;-66
2024/01/02 11:43:00;;;;;;;37.63;29.73;;;10.50;99.90;10.40;95992.00;;;;5034363;28;20227;-67
2024/01/02 11:45:59;;;;;;;35.10;26.60;;;10.00;99.90;9.70;95986.00;;;;5038801;28;20228;-66
2024/01/02 11:49:00;;;;;;;32.77;21.70;;;9.40;99.90;9.80;95985.00;;;;5039981;28;20211;-66
2024/01/02 11:51:56;;;;;;;26.73;21.43;;;9.00;99.90;11.10;95961.00;;;;5038586;28;20263;-66
2024/01/02 11:55:01;;;;;;;30.97;18.77;;;9.00;99.90;10.70;95946.00;;;;5039105;28;20708;-66
2024/01/02 11:57:53;;;;;;;36.30;19.10;;;9.10;99.90;10.30;95943.00;;;;5037018;28;20196;-68
2024/01/02 12:01:00;;;;;;;29.63;18.17;;;9.10;99.90;11.40;95933.00;;;;5030802;28;20201;-67
2024/01/02 12:04:06;;;;;;;54.27;27.73;;;9.30;99.90;12.30;95912.00;;;;5034206;28;20672;-67
2024/01/02 12:07:04;;;;;;;31.90;23.43;;;9.90;99.90;12.20;95918.00;;;;5037574;28;20220;-67
2024/01/02 12:09:53;;;;;;;26.37;18.93;;;10.50;99.90;11.90;95917.00;;;;5036793;28;20204;-66
2024/01/02 12:12:55;;;;;;;21.90;19.67;;;10.70;99.90;12.10;95914.00;;;;5040154;28;20225;-66
2024/01/02 12:15:52;;;;;;;26.67;18.73;;;10.70;99.90;11.60;95901.00;;;;5039769;28;20196;-66
2024/01/02 12:18:45;;;;;;;20.87;16.77;;;10.40;99.90;11.50;95914.00;;;;5033046;28;20200;-66
2024/01/02 12:21:39;;;;;;;13.63;10.77;;;10.00;99.90;11.20;95909.00;;;;5035500;28;20200;-67
2024/01/02 12:24:32;;;;;;;17.63;12.43;;;9.70;99.90;11.50;95916.00;;;;5038289;28;20949;-66
2024/01/02 12:27:23;;;;;;;15.47;11.13;;;9.60;99.90;11.30;95905.00;;;;5040136;28;20212;-67
2024/01/02 12:30:22;;;;;;;21.37;12.63;;;9.60;99.90;10.90;95904.00;;;;5037058;28;20219;-66
2024/01/02 12:33:23;;;;;;;15.53;8.30;;;9.30;99.90;10.90;95904.00;;;;5035726;28;20453;-66
2024/01/02 12:36:24;;;;;;;15.33;8.40;;;9.30;99.90;11.70;95899.00;;;;5036633;28;20277;-66
2024/01/02 12:39:17;;;;;;;12.83;8.47;;;9.40;99.90;11.10;95881.00;;;;5038983;28;20223;-67
2024/01/02 12:42:18;;;;;;;19.70;12.43;;;9.40;99.90;12.10;95892.00;;;;5033240;28;20232;-66
2024/01/02 12:45:12;;;;;;;17.37;11.50;;;9.50;99.90;12.80;95885.00;;;;5037523;28;20703;-67
2024/01/02 12:48:07;;;;;;;25.03;19.50;;;9.80;99.90;12.80;95873.00;;;;5036812;28;20201;-66
2024/01/02 12:50:58;;;;;;;33.67;17.73;;;10.00;99.90;11.60;95868.00;;;;5031861;28;20300;-66